sensor_id;sensor_type;location;lat;lon;timestamp;P1;durP1;ratioP1;P2;durP2;ratioP2
36185;SDS011;22228;53.222;7.446;2024-01-15T00:01:35;12.47;;;1.70;;
36185;SDS011;22228;53.222;7.446;2024-01-15T00:04:56;9.70;;;1.80;;
36185;SDS011;22228;53.222;7.446;2024-01-15T00:08:16;13.03;;;2.17;;
36185;SDS011;22228;53.222;7.446;2024-01-15T00:11:37;6.33;;;1.33;;
36185;SDS011;22228;53.222;7.446;2024-01-15T00:14:59;4.90;;;0.90;;
36185;SDS011;22228;53.222;7.446;2024-01-15T00:18:20;2.70;;;0.40;;
36185;SDS011;22228;53.222;7.446;2024-01-15T00:21:41;5.67;;;0.70;;
36185;SDS011;22228;53.222;7.446;2024-01-15T00:25:02;5.80;;;1.10;;
36185;SDS011;22228;53.222;7.446;2024-01-15T00:28:23;9.13;;;1.43;;
36185;SDS011;22228;53.222;7.446;2024-01-15T00:31:45;10.00;;;1.40;;
36185;SDS011;22228;53.222;7.446;2024-01-15T00:35:05;6.53;;;1.07;;
36185;SDS011;22228;53.222;7.446;2024-01-15T00:38:26;8.43;;;2.07;;
36185;SDS011;22228;53.222;7.446;2024-01-15T00:41:46;4.53;;;1.10;;
36185;SDS011;22228;53.222;7.446;2024-01-15T00:45:07;9.07;;;1.57;;
36185;SDS011;22228;53.222;7.446;2024-01-15T00:48:30;12.50;;;2.13;;
36185;SDS011;22228;53.222;7.446;2024-01-15T00:51:50;12.90;;;2.00;;
36185;SDS011;22228;53.222;7.446;2024-01-15T00:55:10;8.77;;;1.63;;
36185;SDS011;22228;53.222;7.446;2024-01-15T00:58:31;8.03;;;1.60;;
36185;SDS011;22228;53.222;7.446;2024-01-15T01:01:51;9.13;;;1.57;;
36185;SDS011;22228;53.222;7.446;2024-01-15T01:05:13;7.77;;;1.53;;
36185;SDS011;22228;53.222;7.446;2024-01-15T01:08:34;7.63;;;1.10;;
36185;SDS011;22228;53.222;7.446;2024-01-15T01:11:54;8.70;;;1.40;;
36185;SDS011;22228;53.222;7.446;2024-01-15T04:02:24;10.10;;;3.13;;
36185;SDS011;22228;53.222;7.446;2024-01-15T04:05:45;12.13;;;2.10;;
36185;SDS011;22228;53.222;7.446;2024-01-15T04:09:05;12.17;;;3.00;;
36185;SDS011;22228;53.222;7.446;2024-01-15T04:12:25;13.23;;;2.27;;
36185;SDS011;22228;53.222;7.446;2024-01-15T04:15:46;9.47;;;2.07;;
36185;SDS011;22228;53.222;7.446;2024-01-15T04:19:08;9.37;;;2.43;;
36185;SDS011;22228;53.222;7.446;2024-01-15T04:22:28;10.83;;;1.90;;
36185;SDS011;22228;53.222;7.446;2024-01-15T04:25:49;11.73;;;2.27;;
36185;SDS011;22228;53.222;7.446;2024-01-15T04:29:09;11.80;;;2.23;;
36185;SDS011;22228;53.222;7.446;2024-01-15T04:32:29;11.50;;;1.90;;
36185;SDS011;22228;53.222;7.446;2024-01-15T04:35:51;14.33;;;3.57;;
36185;SDS011;22228;53.222;7.446;2024-01-15T04:39:12;9.57;;;1.70;;
36185;SDS011;22228;53.222;7.446;2024-01-15T04:42:32;11.80;;;1.93;;
36185;SDS011;22228;53.222;7.446;2024-01-15T04:45:53;8.23;;;2.10;;
36185;SDS011;22228;53.222;7.446;2024-01-15T04:49:14;13.30;;;1.93;;
36185;SDS011;22228;53.222;7.446;2024-01-15T04:52:35;12.53;;;2.10;;
36185;SDS011;22228;53.222;7.446;2024-01-15T04:55:56;8.47;;;1.40;;
36185;SDS011;22228;53.222;7.446;2024-01-15T04:59:17;12.37;;;1.47;;
36185;SDS011;22228;53.222;7.446;2024-01-15T05:02:37;8.83;;;1.73;;
36185;SDS011;22228;53.222;7.446;2024-01-15T05:05:58;6.43;;;1.50;;
36185;SDS011;22228;53.222;7.446;2024-01-15T05:09:19;6.53;;;1.73;;
36185;SDS011;22228;53.222;7.446;2024-01-15T05:12:40;5.47;;;1.17;;
36185;SDS011;22228;53.222;7.446;2024-01-15T05:16:00;8.37;;;1.63;;
36185;SDS011;22228;53.222;7.446;2024-01-15T05:19:21;6.23;;;1.20;;
36185;SDS011;22228;53.222;7.446;2024-01-15T05:22:41;4.33;;;0.80;;
36185;SDS011;22228;53.222;7.446;2024-01-15T05:26:03;5.43;;;0.50;;
36185;SDS011;22228;53.222;7.446;2024-01-15T05:29:24;0.80;;;0.37;;
36185;SDS011;22228;53.222;7.446;2024-01-15T05:32:45;3.33;;;0.50;;
36185;SDS011;22228;53.222;7.446;2024-01-15T05:36:06;1.83;;;0.50;;
36185;SDS011;22228;53.222;7.446;2024-01-15T05:39:26;3.50;;;0.83;;
36185;SDS011;22228;53.222;7.446;2024-01-15T05:42:48;2.93;;;0.70;;
36185;SDS011;22228;53.222;7.446;2024-01-15T05:46:08;5.70;;;0.70;;
36185;SDS011;22228;53.222;7.446;2024-01-15T05:49:29;6.40;;;1.23;;
36185;SDS011;22228;53.222;7.446;2024-01-15T05:52:50;7.47;;;1.40;;
36185;SDS011;22228;53.222;7.446;2024-01-15T05:56:10;7.90;;;1.73;;
36185;SDS011;22228;53.222;7.446;2024-01-15T05:59:32;8.03;;;1.00;;
36185;SDS011;22228;53.222;7.446;2024-01-15T06:02:54;4.10;;;1.00;;
36185;SDS011;22228;53.222;7.446;2024-01-15T06:06:15;4.80;;;1.17;;
36185;SDS011;22228;53.222;7.446;2024-01-15T06:09:35;5.53;;;0.90;;
36185;SDS011;22228;53.222;7.446;2024-01-15T06:12:57;5.37;;;0.80;;
36185;SDS011;22228;53.222;7.446;2024-01-15T06:16:19;5.33;;;0.80;;
36185;SDS011;22228;53.222;7.446;2024-01-15T06:19:40;9.10;;;1.33;;
36185;SDS011;22228;53.222;7.446;2024-01-15T06:23:01;7.50;;;1.13;;
36185;SDS011;22228;53.222;7.446;2024-01-15T06:26:21;7.73;;;1.33;;
36185;SDS011;22228;53.222;7.446;2024-01-15T06:29:44;6.70;;;0.90;;
36185;SDS011;22228;53.222;7.446;2024-01-15T06:33:07;7.07;;;0.80;;
36185;SDS011;22228;53.222;7.446;2024-01-15T06:36:27;8.50;;;1.07;;
36185;SDS011;22228;53.222;7.446;2024-01-15T06:39:48;6.07;;;1.10;;
36185;SDS011;22228;53.222;7.446;2024-01-15T06:43:08;6.53;;;0.90;;
36185;SDS011;22228;53.222;7.446;2024-01-15T06:46:29;10.53;;;1.43;;
36185;SDS011;22228;53.222;7.446;2024-01-15T06:49:51;4.60;;;1.57;;
36185;SDS011;22228;53.222;7.446;2024-01-15T06:53:11;6.50;;;1.43;;
36185;SDS011;22228;53.222;7.446;2024-01-15T06:56:32;6.27;;;1.47;;
36185;SDS011;22228;53.222;7.446;2024-01-15T06:59:52;7.03;;;1.50;;
36185;SDS011;22228;53.222;7.446;2024-01-15T07:03:13;9.00;;;1.97;;
36185;SDS011;22228;53.222;7.446;2024-01-15T07:06:35;10.67;;;1.50;;
36185;SDS011;22228;53.222;7.446;2024-01-15T07:09:55;10.67;;;2.03;;
36185;SDS011;22228;53.222;7.446;2024-01-15T07:13:16;8.73;;;1.57;;
36185;SDS011;22228;53.222;7.446;2024-01-15T07:16:36;9.83;;;1.73;;
36185;SDS011;22228;53.222;7.446;2024-01-15T07:19:57;8.07;;;1.53;;
36185;SDS011;22228;53.222;7.446;2024-01-15T07:23:18;7.80;;;1.70;;
36185;SDS011;22228;53.222;7.446;2024-01-15T07:26:39;5.37;;;0.70;;
36185;SDS011;22228;53.222;7.446;2024-01-15T07:29:59;1.60;;;0.57;;
36185;SDS011;22228;53.222;7.446;2024-01-15T07:33:20;2.40;;;0.70;;
36185;SDS011;22228;53.222;7.446;2024-01-15T07:36:40;5.07;;;0.93;;
36185;SDS011;22228;53.222;7.446;2024-01-15T07:40:02;8.10;;;1.40;;
36185;SDS011;22228;53.222;7.446;2024-01-15T07:43:25;7.63;;;1.20;;
36185;SDS011;22228;53.222;7.446;2024-01-15T07:46:46;6.13;;;1.60;;
36185;SDS011;22228;53.222;7.446;2024-01-15T07:50:07;10.83;;;1.60;;
36185;SDS011;22228;53.222;7.446;2024-01-15T07:53:27;11.30;;;1.87;;
36185;SDS011;22228;53.222;7.446;2024-01-15T07:56:56;9.63;;;1.90;;
36185;SDS011;22228;53.222;7.446;2024-01-15T08:00:17;6.97;;;1.83;;
36185;SDS011;22228;53.222;7.446;2024-01-15T08:03:37;10.63;;;1.90;;
36185;SDS011;22228;53.222;7.446;2024-01-15T08:06:58;12.00;;;2.37;;
36185;SDS011;22228;53.222;7.446;2024-01-15T08:10:18;10.53;;;1.83;;
36185;SDS011;22228;53.222;7.446;2024-01-15T08:13:40;16.07;;;2.73;;
36185;SDS011;22228;53.222;7.446;2024-01-15T08:17:01;8.23;;;1.80;;
36185;SDS011;22228;53.222;7.446;2024-01-15T08:20:21;9.80;;;1.80;;
36185;SDS011;22228;53.222;7.446;2024-01-15T08:23:41;9.17;;;1.80;;
36185;SDS011;22228;53.222;7.446;2024-01-15T08:27:02;7.63;;;1.70;;
36185;SDS011;22228;53.222;7.446;2024-01-15T08:30:24;9.83;;;1.93;;
36185;SDS011;22228;53.222;7.446;2024-01-15T08:33:46;11.30;;;1.83;;
36185;SDS011;22228;53.222;7.446;2024-01-15T08:37:07;8.40;;;1.60;;
36185;SDS011;22228;53.222;7.446;2024-01-15T08:40:27;8.10;;;1.80;;
36185;SDS011;22228;53.222;7.446;2024-01-15T08:43:48;12.10;;;2.00;;
36185;SDS011;22228;53.222;7.446;2024-01-15T08:47:10;6.20;;;1.63;;
36185;SDS011;22228;53.222;7.446;2024-01-15T08:50:30;7.50;;;2.03;;
36185;SDS011;22228;53.222;7.446;2024-01-15T08:53:52;7.40;;;1.60;;
36185;SDS011;22228;53.222;7.446;2024-01-15T08:57:12;11.07;;;1.30;;
36185;SDS011;22228;53.222;7.446;2024-01-15T09:00:33;8.13;;;1.17;;
36185;SDS011;22228;53.222;7.446;2024-01-15T09:03:54;10.30;;;1.27;;
36185;SDS011;22228;53.222;7.446;2024-01-15T09:07:15;10.37;;;1.93;;
36185;SDS011;22228;53.222;7.446;2024-01-15T09:10:35;8.17;;;1.50;;
36185;SDS011;22228;53.222;7.446;2024-01-15T09:13:56;6.50;;;1.40;;
36185;SDS011;22228;53.222;7.446;2024-01-15T09:17:17;12.37;;;1.53;;
36185;SDS011;22228;53.222;7.446;2024-01-15T09:20:38;10.93;;;1.53;;
36185;SDS011;22228;53.222;7.446;2024-01-15T09:23:59;7.67;;;1.33;;
36185;SDS011;22228;53.222;7.446;2024-01-15T09:27:19;6.87;;;1.10;;
36185;SDS011;22228;53.222;7.446;2024-01-15T09:30:40;9.40;;;1.60;;
36185;SDS011;22228;53.222;7.446;2024-01-15T09:34:01;8.97;;;1.70;;
36185;SDS011;22228;53.222;7.446;2024-01-15T09:37:22;8.07;;;1.80;;
36185;SDS011;22228;53.222;7.446;2024-01-15T09:40:43;9.07;;;1.43;;
36185;SDS011;22228;53.222;7.446;2024-01-15T09:44:06;7.47;;;1.30;;
36185;SDS011;22228;53.222;7.446;2024-01-15T09:47:27;6.37;;;1.33;;
36185;SDS011;22228;53.222;7.446;2024-01-15T09:50:48;8.90;;;1.20;;
36185;SDS011;22228;53.222;7.446;2024-01-15T09:54:11;3.73;;;1.03;;
36185;SDS011;22228;53.222;7.446;2024-01-15T09:57:32;4.00;;;1.20;;
36185;SDS011;22228;53.222;7.446;2024-01-15T10:00:52;4.80;;;0.90;;
36185;SDS011;22228;53.222;7.446;2024-01-15T10:04:13;4.63;;;1.00;;
36185;SDS011;22228;53.222;7.446;2024-01-15T10:07:34;7.73;;;0.90;;
36185;SDS011;22228;53.222;7.446;2024-01-15T10:10:58;4.40;;;1.20;;
36185;SDS011;22228;53.222;7.446;2024-01-15T10:14:19;3.23;;;0.90;;
36185;SDS011;22228;53.222;7.446;2024-01-15T10:17:39;2.57;;;0.80;;
36185;SDS011;22228;53.222;7.446;2024-01-15T10:20:59;3.63;;;1.13;;
36185;SDS011;22228;53.222;7.446;2024-01-15T10:24:20;4.83;;;1.10;;
36185;SDS011;22228;53.222;7.446;2024-01-15T10:27:42;1.27;;;0.80;;
36185;SDS011;22228;53.222;7.446;2024-01-15T10:31:03;3.70;;;0.90;;
36185;SDS011;22228;53.222;7.446;2024-01-15T10:34:24;4.67;;;1.07;;
36185;SDS011;22228;53.222;7.446;2024-01-15T10:37:45;4.20;;;0.90;;
36185;SDS011;22228;53.222;7.446;2024-01-15T10:41:07;9.37;;;1.40;;
36185;SDS011;22228;53.222;7.446;2024-01-15T10:44:29;6.13;;;1.00;;
36185;SDS011;22228;53.222;7.446;2024-01-15T10:47:50;2.77;;;0.90;;
36185;SDS011;22228;53.222;7.446;2024-01-15T10:51:10;1.87;;;0.90;;
36185;SDS011;22228;53.222;7.446;2024-01-15T10:54:32;5.67;;;1.17;;
36185;SDS011;22228;53.222;7.446;2024-01-15T10:57:54;6.17;;;1.03;;
36185;SDS011;22228;53.222;7.446;2024-01-15T11:01:16;4.63;;;1.20;;
36185;SDS011;22228;53.222;7.446;2024-01-15T11:04:38;3.53;;;1.07;;
36185;SDS011;22228;53.222;7.446;2024-01-15T11:07:59;6.70;;;1.00;;
36185;SDS011;22228;53.222;7.446;2024-01-15T11:11:21;8.17;;;1.17;;
36185;SDS011;22228;53.222;7.446;2024-01-15T11:14:45;6.97;;;1.10;;
36185;SDS011;22228;53.222;7.446;2024-01-15T11:18:07;5.30;;;1.50;;
36185;SDS011;22228;53.222;7.446;2024-01-15T11:21:30;5.40;;;1.37;;
36185;SDS011;22228;53.222;7.446;2024-01-15T11:24:50;4.57;;;1.20;;
36185;SDS011;22228;53.222;7.446;2024-01-15T11:28:11;6.97;;;1.50;;
36185;SDS011;22228;53.222;7.446;2024-01-15T11:32:07;7.47;;;1.90;;
36185;SDS011;22228;53.222;7.446;2024-01-15T11:42:59;4.60;;;1.40;;
36185;SDS011;22228;53.222;7.446;2024-01-15T11:46:20;6.10;;;1.13;;
36185;SDS011;22228;53.222;7.446;2024-01-15T11:49:53;3.07;;;0.90;;
36185;SDS011;22228;53.222;7.446;2024-01-15T11:53:25;2.27;;;0.90;;
36185;SDS011;22228;53.222;7.446;2024-01-15T11:56:54;7.03;;;1.00;;
36185;SDS011;22228;53.222;7.446;2024-01-15T12:00:15;6.97;;;1.10;;
36185;SDS011;22228;53.222;7.446;2024-01-15T12:03:36;7.13;;;1.00;;
36185;SDS011;22228;53.222;7.446;2024-01-15T12:06:57;4.10;;;1.10;;
36185;SDS011;22228;53.222;7.446;2024-01-15T12:10:20;3.67;;;1.10;;
36185;SDS011;22228;53.222;7.446;2024-01-15T12:13:41;7.87;;;1.00;;
36185;SDS011;22228;53.222;7.446;2024-01-15T12:17:02;5.10;;;1.03;;
36185;SDS011;22228;53.222;7.446;2024-01-15T12:20:23;5.80;;;1.20;;
36185;SDS011;22228;53.222;7.446;2024-01-15T12:23:46;6.47;;;1.10;;
36185;SDS011;22228;53.222;7.446;2024-01-15T12:27:12;3.43;;;1.47;;
36185;SDS011;22228;53.222;7.446;2024-01-15T12:30:34;4.57;;;0.90;;
36185;SDS011;22228;53.222;7.446;2024-01-15T12:33:57;4.83;;;1.53;;
36185;SDS011;22228;53.222;7.446;2024-01-15T12:37:17;3.53;;;1.10;;
36185;SDS011;22228;53.222;7.446;2024-01-15T12:40:38;4.80;;;1.00;;
36185;SDS011;22228;53.222;7.446;2024-01-15T12:44:03;4.60;;;1.00;;
36185;SDS011;22228;53.222;7.446;2024-01-15T12:47:24;2.73;;;1.30;;
36185;SDS011;22228;53.222;7.446;2024-01-15T12:50:45;3.97;;;1.00;;
36185;SDS011;22228;53.222;7.446;2024-01-15T12:54:06;3.47;;;0.60;;
36185;SDS011;22228;53.222;7.446;2024-01-15T12:57:26;3.83;;;0.50;;
36185;SDS011;22228;53.222;7.446;2024-01-15T13:00:48;1.37;;;0.67;;
36185;SDS011;22228;53.222;7.446;2024-01-15T13:04:08;2.13;;;0.57;;
36185;SDS011;22228;53.222;7.446;2024-01-15T13:07:29;3.00;;;0.60;;
36185;SDS011;22228;53.222;7.446;2024-01-15T13:10:50;1.37;;;0.50;;
36185;SDS011;22228;53.222;7.446;2024-01-15T13:14:11;3.80;;;0.57;;
36185;SDS011;22228;53.222;7.446;2024-01-15T13:17:33;3.07;;;0.67;;
36185;SDS011;22228;53.222;7.446;2024-01-15T13:20:53;2.50;;;0.63;;
36185;SDS011;22228;53.222;7.446;2024-01-15T13:24:14;2.50;;;0.83;;
36185;SDS011;22228;53.222;7.446;2024-01-15T13:27:35;4.63;;;1.77;;
36185;SDS011;22228;53.222;7.446;2024-01-15T13:30:55;3.67;;;1.00;;
36185;SDS011;22228;53.222;7.446;2024-01-15T13:34:17;1.53;;;0.80;;
36185;SDS011;22228;53.222;7.446;2024-01-15T13:37:37;4.37;;;0.70;;
36185;SDS011;22228;53.222;7.446;2024-01-15T13:40:59;1.73;;;0.50;;
36185;SDS011;22228;53.222;7.446;2024-01-15T13:44:20;4.60;;;1.20;;
36185;SDS011;22228;53.222;7.446;2024-01-15T13:47:40;2.00;;;0.60;;
36185;SDS011;22228;53.222;7.446;2024-01-15T13:51:03;3.13;;;0.73;;
36185;SDS011;22228;53.222;7.446;2024-01-15T13:54:24;4.33;;;0.77;;
36185;SDS011;22228;53.222;7.446;2024-01-15T13:57:44;1.10;;;0.53;;
36185;SDS011;22228;53.222;7.446;2024-01-15T14:01:05;4.63;;;1.00;;
36185;SDS011;22228;53.222;7.446;2024-01-15T14:04:25;3.73;;;0.60;;
36185;SDS011;22228;53.222;7.446;2024-01-15T14:07:47;2.00;;;0.80;;
36185;SDS011;22228;53.222;7.446;2024-01-15T14:11:08;1.80;;;0.73;;
36185;SDS011;22228;53.222;7.446;2024-01-15T14:14:28;1.97;;;0.70;;
36185;SDS011;22228;53.222;7.446;2024-01-15T14:17:49;2.70;;;0.80;;
36185;SDS011;22228;53.222;7.446;2024-01-15T14:21:11;9.57;;;1.20;;
36185;SDS011;22228;53.222;7.446;2024-01-15T14:24:33;7.13;;;1.40;;
36185;SDS011;22228;53.222;7.446;2024-01-15T14:27:53;4.87;;;0.60;;
36185;SDS011;22228;53.222;7.446;2024-01-15T14:31:14;6.17;;;1.33;;
36185;SDS011;22228;53.222;7.446;2024-01-15T14:34:34;8.17;;;1.00;;
36185;SDS011;22228;53.222;7.446;2024-01-15T14:37:55;6.23;;;1.33;;
36185;SDS011;22228;53.222;7.446;2024-01-15T14:41:18;3.73;;;1.00;;
36185;SDS011;22228;53.222;7.446;2024-01-15T14:44:39;3.57;;;1.10;;
36185;SDS011;22228;53.222;7.446;2024-01-15T14:48:00;11.93;;;1.53;;
36185;SDS011;22228;53.222;7.446;2024-01-15T14:51:20;12.17;;;1.70;;
36185;SDS011;22228;53.222;7.446;2024-01-15T14:54:41;5.93;;;1.10;;
36185;SDS011;22228;53.222;7.446;2024-01-15T14:58:03;6.47;;;0.87;;
36185;SDS011;22228;53.222;7.446;2024-01-15T15:01:23;5.43;;;1.33;;
36185;SDS011;22228;53.222;7.446;2024-01-15T15:04:44;4.53;;;1.03;;
36185;SDS011;22228;53.222;7.446;2024-01-15T15:08:04;2.97;;;1.20;;
36185;SDS011;22228;53.222;7.446;2024-01-15T15:11:27;5.37;;;1.70;;
36185;SDS011;22228;53.222;7.446;2024-01-15T15:14:49;4.13;;;1.27;;
36185;SDS011;22228;53.222;7.446;2024-01-15T15:18:09;10.83;;;2.23;;
36185;SDS011;22228;53.222;7.446;2024-01-15T15:21:30;7.13;;;2.20;;
36185;SDS011;22228;53.222;7.446;2024-01-15T15:24:50;8.77;;;1.77;;
36185;SDS011;22228;53.222;7.446;2024-01-15T15:28:10;5.97;;;1.23;;
36185;SDS011;22228;53.222;7.446;2024-01-15T15:31:34;6.30;;;1.03;;
36185;SDS011;22228;53.222;7.446;2024-01-15T15:34:55;2.77;;;0.73;;
36185;SDS011;22228;53.222;7.446;2024-01-15T15:38:15;3.23;;;0.90;;
36185;SDS011;22228;53.222;7.446;2024-01-15T15:41:36;1.43;;;0.47;;
36185;SDS011;22228;53.222;7.446;2024-01-15T15:44:56;2.30;;;0.60;;
36185;SDS011;22228;53.222;7.446;2024-01-15T15:48:18;1.50;;;0.50;;
36185;SDS011;22228;53.222;7.446;2024-01-15T15:51:39;2.60;;;0.60;;
36185;SDS011;22228;53.222;7.446;2024-01-15T15:55:00;2.63;;;0.50;;
36185;SDS011;22228;53.222;7.446;2024-01-15T15:58:21;1.40;;;0.40;;
36185;SDS011;22228;53.222;7.446;2024-01-15T16:01:41;2.50;;;0.50;;
36185;SDS011;22228;53.222;7.446;2024-01-15T16:05:04;1.50;;;0.80;;
36185;SDS011;22228;53.222;7.446;2024-01-15T16:08:28;4.10;;;1.10;;
36185;SDS011;22228;53.222;7.446;2024-01-15T16:11:48;4.77;;;1.83;;
36185;SDS011;22228;53.222;7.446;2024-01-15T16:15:16;4.25;;;1.20;;
36185;SDS011;22228;53.222;7.446;2024-01-15T16:18:34;3.80;;;0.87;;
36185;SDS011;22228;53.222;7.446;2024-01-15T16:21:55;3.90;;;1.00;;
36185;SDS011;22228;53.222;7.446;2024-01-15T16:25:16;1.57;;;0.67;;
36185;SDS011;22228;53.222;7.446;2024-01-15T16:28:36;3.17;;;0.70;;
36185;SDS011;22228;53.222;7.446;2024-01-15T16:31:57;1.97;;;0.90;;
36185;SDS011;22228;53.222;7.446;2024-01-15T16:35:17;1.10;;;1.00;;
36185;SDS011;22228;53.222;7.446;2024-01-15T16:38:39;4.10;;;1.10;;
36185;SDS011;22228;53.222;7.446;2024-01-15T16:42:00;4.70;;;1.07;;
36185;SDS011;22228;53.222;7.446;2024-01-15T16:45:20;3.20;;;0.90;;
36185;SDS011;22228;53.222;7.446;2024-01-15T16:48:40;4.27;;;0.80;;
36185;SDS011;22228;53.222;7.446;2024-01-15T16:52:01;8.27;;;1.10;;
36185;SDS011;22228;53.222;7.446;2024-01-15T16:55:24;4.83;;;1.20;;
36185;SDS011;22228;53.222;7.446;2024-01-15T16:58:44;2.70;;;0.93;;
36185;SDS011;22228;53.222;7.446;2024-01-15T17:02:05;4.80;;;1.20;;
36185;SDS011;22228;53.222;7.446;2024-01-15T17:05:26;4.63;;;1.30;;
36185;SDS011;22228;53.222;7.446;2024-01-15T17:08:47;2.83;;;1.10;;
36185;SDS011;22228;53.222;7.446;2024-01-15T17:12:08;4.70;;;1.40;;
36185;SDS011;22228;53.222;7.446;2024-01-15T17:15:29;5.67;;;2.00;;
36185;SDS011;22228;53.222;7.446;2024-01-15T17:18:51;6.30;;;1.43;;
36185;SDS011;22228;53.222;7.446;2024-01-15T17:22:11;7.40;;;1.60;;
36185;SDS011;22228;53.222;7.446;2024-01-15T17:25:32;6.23;;;2.10;;
36185;SDS011;22228;53.222;7.446;2024-01-15T17:28:55;7.60;;;2.27;;
36185;SDS011;22228;53.222;7.446;2024-01-15T17:32:15;8.77;;;1.77;;
36185;SDS011;22228;53.222;7.446;2024-01-15T17:35:36;6.60;;;1.77;;
36185;SDS011;22228;53.222;7.446;2024-01-15T17:38:56;4.53;;;1.10;;
36185;SDS011;22228;53.222;7.446;2024-01-15T17:42:17;6.07;;;1.10;;
36185;SDS011;22228;53.222;7.446;2024-01-15T17:45:38;6.17;;;1.27;;
36185;SDS011;22228;53.222;7.446;2024-01-15T17:49:00;4.80;;;0.90;;
36185;SDS011;22228;53.222;7.446;2024-01-15T17:52:22;4.80;;;1.10;;
36185;SDS011;22228;53.222;7.446;2024-01-15T17:55:42;4.83;;;1.00;;
36185;SDS011;22228;53.222;7.446;2024-01-15T17:59:03;4.57;;;0.83;;
36185;SDS011;22228;53.222;7.446;2024-01-15T18:02:25;5.07;;;1.20;;
36185;SDS011;22228;53.222;7.446;2024-01-15T18:05:45;9.73;;;1.27;;
36185;SDS011;22228;53.222;7.446;2024-01-15T18:09:06;2.10;;;0.80;;
36185;SDS011;22228;53.222;7.446;2024-01-15T18:12:27;3.30;;;0.70;;
36185;SDS011;22228;53.222;7.446;2024-01-15T18:15:47;5.63;;;0.83;;
36185;SDS011;22228;53.222;7.446;2024-01-15T18:19:08;3.00;;;0.80;;
36185;SDS011;22228;53.222;7.446;2024-01-15T18:22:29;4.57;;;1.00;;
36185;SDS011;22228;53.222;7.446;2024-01-15T18:25:50;1.13;;;0.90;;
36185;SDS011;22228;53.222;7.446;2024-01-15T18:29:11;1.03;;;0.40;;
36185;SDS011;22228;53.222;7.446;2024-01-15T18:32:31;2.23;;;0.50;;
36185;SDS011;22228;53.222;7.446;2024-01-15T18:35:53;2.63;;;0.57;;
36185;SDS011;22228;53.222;7.446;2024-01-15T18:39:14;2.50;;;0.50;;
36185;SDS011;22228;53.222;7.446;2024-01-15T18:42:35;3.37;;;0.60;;
36185;SDS011;22228;53.222;7.446;2024-01-15T18:45:55;1.87;;;0.50;;
36185;SDS011;22228;53.222;7.446;2024-01-15T18:49:15;4.63;;;0.90;;
36185;SDS011;22228;53.222;7.446;2024-01-15T18:52:39;3.80;;;1.60;;
36185;SDS011;22228;53.222;7.446;2024-01-15T18:56:00;1.70;;;0.90;;
36185;SDS011;22228;53.222;7.446;2024-01-15T18:59:21;9.43;;;3.40;;
36185;SDS011;22228;53.222;7.446;2024-01-15T19:02:42;11.83;;;4.33;;
36185;SDS011;22228;53.222;7.446;2024-01-15T19:06:03;4.10;;;0.90;;
36185;SDS011;22228;53.222;7.446;2024-01-15T19:09:25;4.70;;;1.00;;
36185;SDS011;22228;53.222;7.446;2024-01-15T19:12:46;2.70;;;1.10;;
36185;SDS011;22228;53.222;7.446;2024-01-15T19:16:07;5.13;;;0.80;;
36185;SDS011;22228;53.222;7.446;2024-01-15T19:19:28;7.80;;;1.30;;
36185;SDS011;22228;53.222;7.446;2024-01-15T19:22:50;4.93;;;1.53;;
36185;SDS011;22228;53.222;7.446;2024-01-15T19:26:16;2.17;;;1.13;;
36185;SDS011;22228;53.222;7.446;2024-01-15T19:29:37;3.53;;;1.00;;
36185;SDS011;22228;53.222;7.446;2024-01-15T19:32:57;5.07;;;1.40;;
36185;SDS011;22228;53.222;7.446;2024-01-15T19:36:19;6.83;;;1.47;;
36185;SDS011;22228;53.222;7.446;2024-01-15T19:39:41;9.80;;;2.13;;
36185;SDS011;22228;53.222;7.446;2024-01-15T19:43:03;6.37;;;1.43;;
36185;SDS011;22228;53.222;7.446;2024-01-15T19:46:24;5.67;;;1.80;;
36185;SDS011;22228;53.222;7.446;2024-01-15T19:49:44;7.77;;;1.87;;
36185;SDS011;22228;53.222;7.446;2024-01-15T19:53:06;13.57;;;2.37;;
36185;SDS011;22228;53.222;7.446;2024-01-15T19:56:26;10.20;;;1.77;;
36185;SDS011;22228;53.222;7.446;2024-01-15T19:59:48;10.27;;;1.70;;
36185;SDS011;22228;53.222;7.446;2024-01-15T20:03:12;7.53;;;2.07;;
36185;SDS011;22228;53.222;7.446;2024-01-15T20:06:32;4.43;;;1.10;;
36185;SDS011;22228;53.222;7.446;2024-01-15T20:09:53;5.43;;;1.13;;
36185;SDS011;22228;53.222;7.446;2024-01-15T20:13:13;7.13;;;1.17;;
36185;SDS011;22228;53.222;7.446;2024-01-15T20:16:35;5.40;;;1.00;;
36185;SDS011;22228;53.222;7.446;2024-01-15T20:19:56;8.27;;;1.20;;
36185;SDS011;22228;53.222;7.446;2024-01-15T20:23:17;5.23;;;0.80;;
36185;SDS011;22228;53.222;7.446;2024-01-15T20:26:37;5.30;;;1.47;;
36185;SDS011;22228;53.222;7.446;2024-01-15T20:29:57;6.20;;;2.23;;
36185;SDS011;22228;53.222;7.446;2024-01-15T20:33:19;4.40;;;1.20;;
36185;SDS011;22228;53.222;7.446;2024-01-15T20:36:40;5.23;;;1.10;;
36185;SDS011;22228;53.222;7.446;2024-01-15T20:40:02;2.13;;;1.03;;
36185;SDS011;22228;53.222;7.446;2024-01-15T20:43:23;3.40;;;0.73;;
36185;SDS011;22228;53.222;7.446;2024-01-15T20:46:44;3.97;;;0.60;;
36185;SDS011;22228;53.222;7.446;2024-01-15T20:50:06;4.00;;;0.60;;
36185;SDS011;22228;53.222;7.446;2024-01-15T20:53:26;5.17;;;1.00;;
36185;SDS011;22228;53.222;7.446;2024-01-15T20:56:47;4.73;;;0.60;;
36185;SDS011;22228;53.222;7.446;2024-01-15T21:00:08;1.13;;;0.40;;
36185;SDS011;22228;53.222;7.446;2024-01-15T21:03:29;4.13;;;0.53;;
36185;SDS011;22228;53.222;7.446;2024-01-15T21:06:51;4.63;;;0.50;;
36185;SDS011;22228;53.222;7.446;2024-01-15T21:10:14;4.27;;;0.60;;
36185;SDS011;22228;53.222;7.446;2024-01-15T21:13:35;1.77;;;0.70;;
36185;SDS011;22228;53.222;7.446;2024-01-15T21:16:55;2.03;;;0.90;;
36185;SDS011;22228;53.222;7.446;2024-01-15T21:20:16;4.33;;;1.07;;
36185;SDS011;22228;53.222;7.446;2024-01-15T21:23:38;1.90;;;0.50;;
36185;SDS011;22228;53.222;7.446;2024-01-15T21:26:59;1.47;;;0.83;;
36185;SDS011;22228;53.222;7.446;2024-01-15T21:30:20;2.40;;;0.60;;
36185;SDS011;22228;53.222;7.446;2024-01-15T21:33:42;4.47;;;1.00;;
36185;SDS011;22228;53.222;7.446;2024-01-15T21:37:05;1.90;;;1.07;;
36185;SDS011;22228;53.222;7.446;2024-01-15T21:40:26;4.07;;;0.77;;
36185;SDS011;22228;53.222;7.446;2024-01-15T21:43:47;0.87;;;0.73;;
36185;SDS011;22228;53.222;7.446;2024-01-15T21:47:07;4.83;;;0.87;;
36185;SDS011;22228;53.222;7.446;2024-01-15T21:50:28;4.20;;;0.70;;
36185;SDS011;22228;53.222;7.446;2024-01-15T21:53:48;4.23;;;0.80;;
36185;SDS011;22228;53.222;7.446;2024-01-15T21:57:10;6.77;;;1.20;;
36185;SDS011;22228;53.222;7.446;2024-01-15T22:00:31;7.13;;;2.13;;
36185;SDS011;22228;53.222;7.446;2024-01-15T22:03:51;2.50;;;0.80;;
36185;SDS011;22228;53.222;7.446;2024-01-15T22:07:11;1.70;;;0.83;;
36185;SDS011;22228;53.222;7.446;2024-01-15T22:10:32;3.47;;;1.37;;
36185;SDS011;22228;53.222;7.446;2024-01-15T22:13:54;5.53;;;0.90;;
36185;SDS011;22228;53.222;7.446;2024-01-15T22:17:14;3.87;;;0.80;;
36185;SDS011;22228;53.222;7.446;2024-01-15T22:20:35;4.20;;;1.10;;
36185;SDS011;22228;53.222;7.446;2024-01-15T22:23:55;6.20;;;0.70;;
36185;SDS011;22228;53.222;7.446;2024-01-15T22:27:16;3.23;;;0.57;;
36185;SDS011;22228;53.222;7.446;2024-01-15T22:30:38;2.80;;;0.40;;
36185;SDS011;22228;53.222;7.446;2024-01-15T22:33:58;2.77;;;0.70;;
36185;SDS011;22228;53.222;7.446;2024-01-15T22:37:18;3.77;;;0.87;;
36185;SDS011;22228;53.222;7.446;2024-01-15T22:40:39;1.60;;;0.57;;
36185;SDS011;22228;53.222;7.446;2024-01-15T22:43:59;1.97;;;0.73;;
36185;SDS011;22228;53.222;7.446;2024-01-15T22:47:21;4.90;;;0.90;;
36185;SDS011;22228;53.222;7.446;2024-01-15T22:50:42;2.77;;;0.70;;
36185;SDS011;22228;53.222;7.446;2024-01-15T22:54:02;2.57;;;0.77;;
36185;SDS011;22228;53.222;7.446;2024-01-15T22:57:22;3.80;;;0.63;;
36185;SDS011;22228;53.222;7.446;2024-01-15T23:00:43;1.70;;;0.50;;
36185;SDS011;22228;53.222;7.446;2024-01-15T23:04:05;2.13;;;0.50;;